PWSweather.com
Personal Weather Stations
Station Observations
IPORTUGA89
BarosaPT

BarosaPT

Lat: 39.754028, Lon: -8.843

Elevation: 98

Station Type: Davis Vp2

High Low Average
Temperature 53.1°F11.7°C 37.9°F3.3°C 46.7°F8.2°C
Dew Point 45.7°F7.6°C 35.2°F1.8°C 40.7°F4.8°C
Winds 12.1 mph 19.5 kmh Calm Calm 4.0 mph W6.4 kmh W
Wind Gusts 23.9 mph38.5 kmh -- 9.0 mph14.5 kmh
Humidity 94% 58% 80%
Pressure 30.17 in1021.7 mb 29.93 in1013.5 mb -
Precipitation 0.07 in1.8 mm - -
Hour Temp Dew Point Humidity Winds Wind Gusts Pressure Precip Precip Rate Daily Precip Total
12:00 AM 48.6°F9.2°C 45.7°F7.6°C 90% 4.9 mph N7.9 kmh N 10.1 mph16.3 kmh 30.17 in1021.7 mb 0.01 in0.3 mm 0.00 in0.0 mm 0.01 in0.3 mm
12:10 AM 48.6°F9.2°C 45.7°F7.6°C 90% 4.9 mph NNW7.9 kmh NNW 10.1 mph16.3 kmh 30.16 in1021.3 mb 0.01 in0.3 mm 0.00 in0.0 mm 0.01 in0.3 mm
12:21 AM 48.6°F9.2°C 45.7°F7.6°C 90% 4.9 mph NNW7.9 kmh NNW 10.1 mph16.3 kmh 30.16 in1021.3 mb 0.01 in0.3 mm 0.00 in0.0 mm 0.01 in0.3 mm
12:31 AM 48.4°F9.1°C 45.3°F7.4°C 89% 4.0 mph NW6.4 kmh NW 8.9 mph14.3 kmh 30.16 in1021.3 mb 0.01 in0.3 mm 0.00 in0.0 mm 0.01 in0.3 mm
12:41 AM 48.0°F8.9°C 45.0°F7.2°C 89% 4.0 mph NW6.4 kmh NW 10.1 mph16.3 kmh 30.16 in1021.3 mb 0.00 in0.0 mm 0.00 in0.0 mm 0.01 in0.3 mm
12:51 AM 47.8°F8.8°C 44.8°F7.1°C 89% 4.0 mph WNW6.4 kmh WNW 10.1 mph16.3 kmh 30.15 in1021.0 mb 0.00 in0.0 mm 0.00 in0.0 mm 0.01 in0.3 mm
01:01 AM 47.5°F8.6°C 44.4°F6.9°C 89% 2.0 mph NW3.2 kmh NW 4.9 mph7.9 kmh 30.15 in1021.0 mb 0.00 in0.0 mm 0.00 in0.0 mm 0.01 in0.3 mm
01:11 AM 46.8°F8.2°C 43.7°F6.5°C 89% 2.0 mph NW3.2 kmh NW 4.0 mph6.4 kmh 30.14 in1020.7 mb 0.00 in0.0 mm 0.00 in0.0 mm 0.01 in0.3 mm
01:21 AM 46.6°F8.1°C 43.9°F6.6°C 90% 2.0 mph NW3.2 kmh NW 4.0 mph6.4 kmh 30.14 in1020.7 mb 0.00 in0.0 mm 0.00 in0.0 mm 0.01 in0.3 mm
01:31 AM 46.8°F8.2°C 44.2°F6.8°C 91% 2.0 mph NNW3.2 kmh NNW 4.9 mph7.9 kmh 30.14 in1020.7 mb 0.02 in0.5 mm 0.12 in3.0 mm 0.02 in0.5 mm
01:41 AM 47.1°F8.4°C 44.6°F7.0°C 91% 2.9 mph WSW4.7 kmh WSW 6.0 mph9.7 kmh 30.12 in1020.0 mb 0.02 in0.5 mm 0.00 in0.0 mm 0.02 in0.5 mm
01:51 AM 46.9°F8.3°C 44.4°F6.9°C 91% 2.9 mph NW4.7 kmh NW 6.9 mph11.1 kmh 30.12 in1020.0 mb 0.02 in0.5 mm 0.00 in0.0 mm 0.02 in0.5 mm
02:01 AM 46.6°F8.1°C 44.1°F6.7°C 91% 2.0 mph WNW3.2 kmh WNW 4.9 mph7.9 kmh 30.12 in1020.0 mb 0.02 in0.5 mm 0.00 in0.0 mm 0.02 in0.5 mm
02:11 AM 46.6°F8.1°C 44.4°F6.9°C 92% Calm Calm -- 30.12 in1020.0 mb 0.02 in0.5 mm 0.00 in0.0 mm 0.02 in0.5 mm
02:21 AM 46.6°F8.1°C 44.4°F6.9°C 92% 4.9 mph N7.9 kmh N 16.1 mph25.9 kmh 30.12 in1020.0 mb 0.03 in0.8 mm 0.06 in1.5 mm 0.03 in0.8 mm
02:31 AM 46.8°F8.2°C 44.2°F6.8°C 91% 6.0 mph 9.7 kmh 11.0 mph17.7 kmh 30.11 in1019.6 mb 0.02 in0.5 mm 0.00 in0.0 mm 0.03 in0.8 mm
02:42 AM 46.6°F8.1°C 44.1°F6.7°C 91% 2.0 mph NW3.2 kmh NW 8.1 mph13.0 kmh 30.11 in1019.6 mb 0.02 in0.5 mm 0.00 in0.0 mm 0.03 in0.8 mm
02:52 AM 46.6°F8.1°C 44.1°F6.7°C 91% Calm Calm -- 30.11 in1019.6 mb 0.02 in0.5 mm 0.00 in0.0 mm 0.04 in1.0 mm
03:02 AM 46.2°F7.9°C 43.7°F6.5°C 91% Calm Calm -- 30.10 in1019.3 mb 0.02 in0.5 mm 0.00 in0.0 mm 0.04 in1.0 mm
03:12 AM 45.3°F7.4°C 42.8°F6.0°C 91% Calm Calm -- 30.09 in1019.0 mb 0.02 in0.5 mm 0.00 in0.0 mm 0.04 in1.0 mm
03:22 AM 45.0°F7.2°C 42.4°F5.8°C 91% Calm Calm -- 30.09 in1019.0 mb 0.01 in0.3 mm 0.00 in0.0 mm 0.04 in1.0 mm
03:32 AM 45.1°F7.3°C 43.0°F6.1°C 92% 4.0 mph N6.4 kmh N 14.1 mph22.7 kmh 30.09 in1019.0 mb 0.02 in0.5 mm 0.06 in1.5 mm 0.05 in1.3 mm
03:42 AM 45.3°F7.4°C 43.2°F6.2°C 92% 2.9 mph NW4.7 kmh NW 10.1 mph16.3 kmh 30.09 in1019.0 mb 0.02 in0.5 mm 0.00 in0.0 mm 0.05 in1.3 mm
03:52 AM 45.1°F7.3°C 43.0°F6.1°C 92% Calm Calm 0.9 mph1.4 kmh 30.09 in1019.0 mb 0.01 in0.3 mm 0.00 in0.0 mm 0.05 in1.3 mm
04:02 AM 45.0°F7.2°C 42.8°F6.0°C 92% 4.0 mph N6.4 kmh N 10.1 mph16.3 kmh 30.09 in1019.0 mb 0.01 in0.3 mm 0.00 in0.0 mm 0.05 in1.3 mm
04:12 AM 44.8°F7.1°C 42.3°F5.7°C 91% 2.0 mph NNW3.2 kmh NNW 10.1 mph16.3 kmh 30.08 in1018.6 mb 0.01 in0.3 mm 0.00 in0.0 mm 0.05 in1.3 mm
04:22 AM 44.4°F6.9°C 41.9°F5.5°C 91% 0.9 mph N1.4 kmh N 4.9 mph7.9 kmh 30.08 in1018.6 mb 0.01 in0.3 mm 0.00 in0.0 mm 0.05 in1.3 mm
04:32 AM 44.2°F6.8°C 41.7°F5.4°C 91% Calm Calm -- 30.08 in1018.6 mb 0.00 in0.0 mm 0.00 in0.0 mm 0.06 in1.5 mm
04:42 AM 43.5°F6.4°C 41.0°F5.0°C 91% Calm Calm -- 30.07 in1018.3 mb 0.01 in0.3 mm 0.06 in1.5 mm 0.06 in1.5 mm
04:52 AM 43.3°F6.3°C 40.8°F4.9°C 91% Calm Calm -- 30.07 in1018.3 mb 0.01 in0.3 mm 0.00 in0.0 mm 0.06 in1.5 mm
05:03 AM 43.0°F6.1°C 40.8°F4.9°C 92% Calm Calm -- 30.07 in1018.3 mb 0.01 in0.3 mm 0.00 in0.0 mm 0.06 in1.5 mm
05:13 AM 42.6°F5.9°C 40.5°F4.7°C 92% Calm Calm -- 30.07 in1018.3 mb 0.01 in0.3 mm 0.00 in0.0 mm 0.06 in1.5 mm
05:23 AM 41.9°F5.5°C 39.7°F4.3°C 92% Calm Calm -- 30.07 in1018.3 mb 0.01 in0.3 mm 0.00 in0.0 mm 0.06 in1.5 mm
05:33 AM 41.2°F5.1°C 39.0°F3.9°C 92% Calm Calm -- 30.07 in1018.3 mb 0.00 in0.0 mm 0.00 in0.0 mm 0.06 in1.5 mm
05:43 AM 41.2°F5.1°C 39.4°F4.1°C 93% Calm Calm -- 30.06 in1017.9 mb 0.00 in0.0 mm 0.00 in0.0 mm 0.06 in1.5 mm
05:53 AM 41.4°F5.2°C 39.6°F4.2°C 93% Calm Calm -- 30.06 in1017.9 mb 0.00 in0.0 mm 0.00 in0.0 mm 0.06 in1.5 mm
06:03 AM 42.4°F5.8°C 40.8°F4.9°C 94% 0.9 mph N1.4 kmh N 8.1 mph13.0 kmh 30.07 in1018.3 mb 0.01 in0.3 mm 0.01 in0.3 mm 0.06 in1.5 mm
06:13 AM 43.2°F6.2°C 41.5°F5.3°C 94% 2.9 mph NNW4.7 kmh NNW 12.1 mph19.5 kmh 30.06 in1017.9 mb 0.01 in0.3 mm 0.00 in0.0 mm 0.06 in1.5 mm
06:23 AM 43.3°F6.3°C 41.5°F5.3°C 93% 2.0 mph NW3.2 kmh NW 6.0 mph9.7 kmh 30.05 in1017.6 mb 0.02 in0.5 mm 0.06 in1.5 mm 0.07 in1.8 mm
06:33 AM 43.3°F6.3°C 41.5°F5.3°C 93% 2.0 mph WNW3.2 kmh WNW 4.9 mph7.9 kmh 30.05 in1017.6 mb 0.02 in0.5 mm 0.00 in0.0 mm 0.07 in1.8 mm
06:43 AM 43.2°F6.2°C 41.4°F5.2°C 93% 0.9 mph NW1.4 kmh NW 4.9 mph7.9 kmh 30.05 in1017.6 mb 0.02 in0.5 mm 0.00 in0.0 mm 0.07 in1.8 mm
06:54 AM 43.3°F6.3°C 41.5°F5.3°C 93% Calm Calm -- 30.05 in1017.6 mb 0.02 in0.5 mm 0.00 in0.0 mm 0.07 in1.8 mm
07:04 AM 43.2°F6.2°C 41.4°F5.2°C 93% Calm Calm -- 30.04 in1017.3 mb 0.01 in0.3 mm 0.00 in0.0 mm 0.07 in1.8 mm
07:14 AM 43.3°F6.3°C 41.5°F5.3°C 93% Calm Calm 8.1 mph13.0 kmh 30.04 in1017.3 mb 0.01 in0.3 mm 0.00 in0.0 mm 0.07 in1.8 mm
07:24 AM 43.7°F6.5°C 41.5°F5.3°C 92% 4.0 mph NW6.4 kmh NW 8.9 mph14.3 kmh 30.04 in1017.3 mb 0.00 in0.0 mm 0.00 in0.0 mm 0.07 in1.8 mm
07:34 AM 44.1°F6.7°C 41.5°F5.3°C 91% 2.9 mph NW4.7 kmh NW 8.1 mph13.0 kmh 30.04 in1017.3 mb 0.00 in0.0 mm 0.00 in0.0 mm 0.07 in1.8 mm
07:44 AM 43.5°F6.4°C 41.0°F5.0°C 91% Calm Calm -- 30.04 in1017.3 mb 0.00 in0.0 mm 0.00 in0.0 mm 0.07 in1.8 mm
07:54 AM 43.3°F6.3°C 40.8°F4.9°C 91% 2.9 mph WNW4.7 kmh WNW 6.0 mph9.7 kmh 30.04 in1017.3 mb 0.00 in0.0 mm 0.00 in0.0 mm 0.07 in1.8 mm
08:04 AM 43.5°F6.4°C 41.0°F5.0°C 91% Calm Calm 8.9 mph14.3 kmh 30.04 in1017.3 mb 0.00 in0.0 mm 0.00 in0.0 mm 0.07 in1.8 mm
08:14 AM 43.9°F6.6°C 41.4°F5.2°C 91% 4.9 mph NW7.9 kmh NW 8.9 mph14.3 kmh 30.04 in1017.3 mb 0.00 in0.0 mm 0.00 in0.0 mm 0.07 in1.8 mm
08:24 AM 43.9°F6.6°C 41.4°F5.2°C 91% Calm Calm 4.0 mph6.4 kmh 30.04 in1017.3 mb 0.00 in0.0 mm 0.00 in0.0 mm 0.07 in1.8 mm
08:34 AM 44.6°F7.0°C 41.9°F5.5°C 90% 2.0 mph NW3.2 kmh NW 8.9 mph14.3 kmh 30.04 in1017.3 mb 0.00 in0.0 mm 0.00 in0.0 mm 0.07 in1.8 mm
08:44 AM 45.3°F7.4°C 42.6°F5.9°C 90% 4.9 mph NNW7.9 kmh NNW 12.1 mph19.5 kmh 30.04 in1017.3 mb 0.00 in0.0 mm 0.00 in0.0 mm 0.07 in1.8 mm
08:54 AM 45.9°F7.7°C 42.8°F6.0°C 89% 4.9 mph N7.9 kmh N 11.0 mph17.7 kmh 30.03 in1016.9 mb 0.00 in0.0 mm 0.00 in0.0 mm 0.07 in1.8 mm
09:04 AM 46.2°F7.9°C 42.6°F5.9°C 87% 6.0 mph WNW9.7 kmh WNW 13.0 mph20.9 kmh 30.03 in1016.9 mb 0.00 in0.0 mm 0.00 in0.0 mm 0.07 in1.8 mm
09:14 AM 46.6°F8.1°C 42.6°F5.9°C 86% 4.9 mph NNE7.9 kmh NNE 11.0 mph17.7 kmh 30.04 in1017.3 mb 0.00 in0.0 mm 0.00 in0.0 mm 0.07 in1.8 mm
09:24 AM 46.8°F8.2°C 42.3°F5.7°C 84% 4.0 mph NE6.4 kmh NE 8.9 mph14.3 kmh 30.05 in1017.6 mb 0.00 in0.0 mm 0.00 in0.0 mm 0.07 in1.8 mm
09:34 AM 45.9°F7.7°C 41.5°F5.3°C 85% 4.0 mph ESE6.4 kmh ESE 11.0 mph17.7 kmh 30.05 in1017.6 mb 0.00 in0.0 mm 0.00 in0.0 mm 0.07 in1.8 mm
09:44 AM 46.6°F8.1°C 43.0°F6.1°C 87% 2.0 mph NE3.2 kmh NE 6.0 mph9.7 kmh 30.05 in1017.6 mb 0.00 in0.0 mm 0.00 in0.0 mm 0.07 in1.8 mm
09:54 AM 47.7°F8.7°C 43.0°F6.1°C 84% 2.9 mph NNE4.7 kmh NNE 11.0 mph17.7 kmh 30.05 in1017.6 mb 0.00 in0.0 mm 0.00 in0.0 mm 0.07 in1.8 mm
10:04 AM 48.2°F9.0°C 43.3°F6.3°C 83% 4.9 mph 7.9 kmh 10.1 mph16.3 kmh 30.05 in1017.6 mb 0.00 in0.0 mm 0.00 in0.0 mm 0.07 in1.8 mm
10:14 AM 48.7°F9.3°C 42.8°F6.0°C 80% 8.1 mph NNW13.0 kmh NNW 16.1 mph25.9 kmh 30.04 in1017.3 mb 0.00 in0.0 mm 0.00 in0.0 mm 0.07 in1.8 mm
10:24 AM 48.7°F9.3°C 42.4°F5.8°C 79% 10.1 mph N16.3 kmh N 19.0 mph30.6 kmh 30.04 in1017.3 mb 0.00 in0.0 mm 0.00 in0.0 mm 0.07 in1.8 mm
10:34 AM 49.3°F9.6°C 42.8°F6.0°C 78% 6.9 mph N11.1 kmh N 14.1 mph22.7 kmh 30.04 in1017.3 mb 0.00 in0.0 mm 0.00 in0.0 mm 0.07 in1.8 mm
10:45 AM 49.6°F9.8°C 42.1°F5.6°C 75% 6.9 mph NW11.1 kmh NW 16.1 mph25.9 kmh 30.04 in1017.3 mb 0.00 in0.0 mm 0.00 in0.0 mm 0.07 in1.8 mm
10:55 AM 50.4°F10.2°C 42.4°F5.8°C 74% 8.1 mph NE13.0 kmh NE 16.1 mph25.9 kmh 30.04 in1017.3 mb 0.00 in0.0 mm 0.00 in0.0 mm 0.07 in1.8 mm
11:05 AM 50.4°F10.2°C 41.4°F5.2°C 71% 10.1 mph NNW16.3 kmh NNW 17.0 mph27.4 kmh 30.04 in1017.3 mb 0.00 in0.0 mm 0.00 in0.0 mm 0.07 in1.8 mm
11:15 AM 50.9°F10.5°C 41.9°F5.5°C 71% 8.9 mph NNE14.3 kmh NNE 23.0 mph37.0 kmh 30.03 in1016.9 mb 0.00 in0.0 mm 0.00 in0.0 mm 0.07 in1.8 mm
11:25 AM 50.4°F10.2°C 40.6°F4.8°C 69% 11.0 mph NE17.7 kmh NE 19.9 mph32.0 kmh 30.03 in1016.9 mb 0.00 in0.0 mm 0.00 in0.0 mm 0.07 in1.8 mm
11:35 AM 50.9°F10.5°C 40.6°F4.8°C 68% 10.1 mph NE16.3 kmh NE 19.9 mph32.0 kmh 30.03 in1016.9 mb 0.00 in0.0 mm 0.00 in0.0 mm 0.07 in1.8 mm
11:45 AM 51.4°F10.8°C 40.8°F4.9°C 67% 11.0 mph NNW17.7 kmh NNW 17.9 mph28.8 kmh 30.02 in1016.6 mb 0.00 in0.0 mm 0.00 in0.0 mm 0.07 in1.8 mm
11:55 AM 51.4°F10.8°C 40.5°F4.7°C 66% 10.1 mph 16.3 kmh 17.0 mph27.4 kmh 30.02 in1016.6 mb 0.00 in0.0 mm 0.00 in0.0 mm 0.07 in1.8 mm
12:05 PM 51.3°F10.7°C 39.6°F4.2°C 64% 10.1 mph NNW16.3 kmh NNW 17.0 mph27.4 kmh 30.01 in1016.3 mb 0.00 in0.0 mm 0.00 in0.0 mm 0.07 in1.8 mm
12:15 PM 51.4°F10.8°C 39.7°F4.3°C 64% 12.1 mph NNW19.5 kmh NNW 17.9 mph28.8 kmh 30.01 in1016.3 mb 0.00 in0.0 mm 0.00 in0.0 mm 0.07 in1.8 mm
12:25 PM 51.6°F10.9°C 39.9°F4.4°C 64% 10.1 mph 16.3 kmh 16.1 mph25.9 kmh 30.00 in1015.9 mb 0.00 in0.0 mm 0.00 in0.0 mm 0.07 in1.8 mm
12:35 PM 51.6°F10.9°C 39.4°F4.1°C 63% 10.1 mph N16.3 kmh N 16.1 mph25.9 kmh 29.99 in1015.6 mb 0.00 in0.0 mm 0.00 in0.0 mm 0.07 in1.8 mm
12:45 PM 51.8°F11.0°C 38.3°F3.5°C 60% 8.9 mph 14.3 kmh 19.0 mph30.6 kmh 29.99 in1015.6 mb 0.00 in0.0 mm 0.00 in0.0 mm 0.07 in1.8 mm
12:55 PM 51.4°F10.8°C 38.8°F3.8°C 62% 8.1 mph N13.0 kmh N 17.0 mph27.4 kmh 29.99 in1015.6 mb 0.00 in0.0 mm 0.00 in0.0 mm 0.07 in1.8 mm
01:05 PM 52.0°F11.1°C 37.6°F3.1°C 58% 8.9 mph NW14.3 kmh NW 15.0 mph24.1 kmh 29.98 in1015.2 mb 0.00 in0.0 mm 0.00 in0.0 mm 0.07 in1.8 mm
01:15 PM 52.5°F11.4°C 39.0°F3.9°C 60% 8.9 mph N14.3 kmh N 16.1 mph25.9 kmh 29.98 in1015.2 mb 0.00 in0.0 mm 0.00 in0.0 mm 0.07 in1.8 mm
01:25 PM 52.3°F11.3°C 39.4°F4.1°C 61% 8.1 mph NNE13.0 kmh NNE 14.1 mph22.7 kmh 29.97 in1014.9 mb 0.00 in0.0 mm 0.00 in0.0 mm 0.07 in1.8 mm
01:35 PM 52.9°F11.6°C 39.0°F3.9°C 59% 10.1 mph NNW16.3 kmh NNW 17.0 mph27.4 kmh 29.96 in1014.6 mb 0.00 in0.0 mm 0.00 in0.0 mm 0.07 in1.8 mm
01:45 PM 53.1°F11.7°C 39.9°F4.4°C 61% 8.1 mph NW13.0 kmh NW 17.9 mph28.8 kmh 29.96 in1014.6 mb 0.00 in0.0 mm 0.00 in0.0 mm 0.07 in1.8 mm
01:55 PM 52.9°F11.6°C 38.5°F3.6°C 58% 11.0 mph N17.7 kmh N 17.9 mph28.8 kmh 29.95 in1014.2 mb 0.00 in0.0 mm 0.00 in0.0 mm 0.07 in1.8 mm
02:05 PM 53.1°F11.7°C 38.7°F3.7°C 58% 8.9 mph N14.3 kmh N 17.0 mph27.4 kmh 29.95 in1014.2 mb 0.00 in0.0 mm 0.00 in0.0 mm 0.07 in1.8 mm
02:15 PM 52.5°F11.4°C 38.7°F3.7°C 59% 8.1 mph NW13.0 kmh NW 16.1 mph25.9 kmh 29.95 in1014.2 mb 0.00 in0.0 mm 0.00 in0.0 mm 0.07 in1.8 mm
02:25 PM 52.9°F11.6°C 39.0°F3.9°C 59% 8.9 mph NNW14.3 kmh NNW 15.0 mph24.1 kmh 29.96 in1014.6 mb 0.00 in0.0 mm 0.00 in0.0 mm 0.07 in1.8 mm
02:35 PM 52.0°F11.1°C 39.0°F3.9°C 61% 8.9 mph N14.3 kmh N 17.0 mph27.4 kmh 29.95 in1014.2 mb 0.00 in0.0 mm 0.00 in0.0 mm 0.07 in1.8 mm
02:45 PM 52.2°F11.2°C 39.2°F4.0°C 61% 8.9 mph WNW14.3 kmh WNW 15.0 mph24.1 kmh 29.95 in1014.2 mb 0.00 in0.0 mm 0.00 in0.0 mm 0.07 in1.8 mm
02:55 PM 52.7°F11.5°C 40.1°F4.5°C 62% 6.9 mph NW11.1 kmh NW 23.9 mph38.5 kmh 29.95 in1014.2 mb 0.00 in0.0 mm 0.00 in0.0 mm 0.07 in1.8 mm
03:05 PM 52.2°F11.2°C 40.3°F4.6°C 64% 8.9 mph NW14.3 kmh NW 19.9 mph32.0 kmh 29.95 in1014.2 mb 0.00 in0.0 mm 0.00 in0.0 mm 0.07 in1.8 mm
03:15 PM 52.0°F11.1°C 40.1°F4.5°C 64% 10.1 mph N16.3 kmh N 23.0 mph37.0 kmh 29.95 in1014.2 mb 0.00 in0.0 mm 0.00 in0.0 mm 0.07 in1.8 mm
03:25 PM 52.0°F11.1°C 40.6°F4.8°C 65% 11.0 mph NNW17.7 kmh NNW 21.0 mph33.8 kmh 29.94 in1013.9 mb 0.00 in0.0 mm 0.00 in0.0 mm 0.07 in1.8 mm
03:35 PM 52.3°F11.3°C 40.5°F4.7°C 64% 8.9 mph N14.3 kmh N 17.0 mph27.4 kmh 29.94 in1013.9 mb 0.00 in0.0 mm 0.00 in0.0 mm 0.07 in1.8 mm
03:45 PM 52.0°F11.1°C 40.1°F4.5°C 64% 10.1 mph N16.3 kmh N 19.0 mph30.6 kmh 29.94 in1013.9 mb 0.00 in0.0 mm 0.00 in0.0 mm 0.07 in1.8 mm
03:55 PM 52.2°F11.2°C 40.8°F4.9°C 65% 8.9 mph NNW14.3 kmh NNW 15.0 mph24.1 kmh 29.94 in1013.9 mb 0.00 in0.0 mm 0.00 in0.0 mm 0.07 in1.8 mm
04:05 PM 52.0°F11.1°C 40.6°F4.8°C 65% 11.0 mph NNW17.7 kmh NNW 19.0 mph30.6 kmh 29.94 in1013.9 mb 0.00 in0.0 mm 0.00 in0.0 mm 0.07 in1.8 mm
04:15 PM 51.6°F10.9°C 39.9°F4.4°C 64% 10.1 mph N16.3 kmh N 16.1 mph25.9 kmh 29.94 in1013.9 mb 0.00 in0.0 mm 0.00 in0.0 mm 0.07 in1.8 mm
04:25 PM 51.4°F10.8°C 40.1°F4.5°C 65% 8.1 mph NW13.0 kmh NW 15.0 mph24.1 kmh 29.94 in1013.9 mb 0.00 in0.0 mm 0.00 in0.0 mm 0.07 in1.8 mm
04:35 PM 51.4°F10.8°C 40.1°F4.5°C 65% 6.9 mph NW11.1 kmh NW 13.0 mph20.9 kmh 29.93 in1013.5 mb 0.00 in0.0 mm 0.00 in0.0 mm 0.07 in1.8 mm
04:45 PM 50.5°F10.3°C 39.6°F4.2°C 66% 6.9 mph N11.1 kmh N 13.0 mph20.9 kmh 29.93 in1013.5 mb 0.00 in0.0 mm 0.00 in0.0 mm 0.07 in1.8 mm
04:55 PM 50.2°F10.1°C 39.2°F4.0°C 66% 6.0 mph N9.7 kmh N 11.0 mph17.7 kmh 29.93 in1013.5 mb 0.00 in0.0 mm 0.00 in0.0 mm 0.07 in1.8 mm
05:05 PM 50.0°F10.0°C 39.6°F4.2°C 67% 4.0 mph N6.4 kmh N 11.0 mph17.7 kmh 29.93 in1013.5 mb 0.00 in0.0 mm 0.00 in0.0 mm 0.07 in1.8 mm
05:15 PM 49.8°F9.9°C 39.7°F4.3°C 68% 6.0 mph NNW9.7 kmh NNW 13.0 mph20.9 kmh 29.94 in1013.9 mb 0.00 in0.0 mm 0.00 in0.0 mm 0.07 in1.8 mm
05:25 PM 49.6°F9.8°C 39.9°F4.4°C 69% 6.9 mph NNW11.1 kmh NNW 14.1 mph22.7 kmh 29.94 in1013.9 mb 0.00 in0.0 mm 0.00 in0.0 mm 0.07 in1.8 mm
05:35 PM 49.5°F9.7°C 40.1°F4.5°C 70% 6.0 mph NW9.7 kmh NW 12.1 mph19.5 kmh 29.94 in1013.9 mb 0.00 in0.0 mm 0.00 in0.0 mm 0.07 in1.8 mm
05:45 PM 48.9°F9.4°C 39.9°F4.4°C 71% 2.9 mph NW4.7 kmh NW 12.1 mph19.5 kmh 29.94 in1013.9 mb 0.00 in0.0 mm 0.00 in0.0 mm 0.07 in1.8 mm
05:55 PM 48.7°F9.3°C 39.7°F4.3°C 71% 6.0 mph N9.7 kmh N 13.0 mph20.9 kmh 29.94 in1013.9 mb 0.00 in0.0 mm 0.00 in0.0 mm 0.07 in1.8 mm
06:05 PM 48.4°F9.1°C 39.7°F4.3°C 72% 4.9 mph NW7.9 kmh NW 10.1 mph16.3 kmh 29.94 in1013.9 mb 0.00 in0.0 mm 0.00 in0.0 mm 0.07 in1.8 mm
06:15 PM 48.2°F9.0°C 39.9°F4.4°C 73% 6.0 mph NNW9.7 kmh NNW 12.1 mph19.5 kmh 29.95 in1014.2 mb 0.00 in0.0 mm 0.00 in0.0 mm 0.07 in1.8 mm
06:25 PM 48.0°F8.9°C 40.1°F4.5°C 74% 4.9 mph NW7.9 kmh NW 10.1 mph16.3 kmh 29.95 in1014.2 mb 0.00 in0.0 mm 0.00 in0.0 mm 0.07 in1.8 mm
06:35 PM 47.8°F8.8°C 39.9°F4.4°C 74% 4.0 mph NW6.4 kmh NW 10.1 mph16.3 kmh 29.95 in1014.2 mb 0.00 in0.0 mm 0.00 in0.0 mm 0.07 in1.8 mm
06:45 PM 47.8°F8.8°C 39.9°F4.4°C 74% Calm Calm -- 29.95 in1014.2 mb 0.00 in0.0 mm 0.00 in0.0 mm 0.07 in1.8 mm
06:55 PM 47.7°F8.7°C 40.1°F4.5°C 75% 0.9 mph N1.4 kmh N 6.9 mph11.1 kmh 29.95 in1014.2 mb 0.00 in0.0 mm 0.00 in0.0 mm 0.07 in1.8 mm
07:06 PM 47.3°F8.5°C 39.7°F4.3°C 75% 0.9 mph N1.4 kmh N 4.9 mph7.9 kmh 29.95 in1014.2 mb 0.00 in0.0 mm 0.00 in0.0 mm 0.07 in1.8 mm
07:16 PM 46.8°F8.2°C 39.9°F4.4°C 77% Calm Calm 8.9 mph14.3 kmh 29.96 in1014.6 mb 0.00 in0.0 mm 0.00 in0.0 mm 0.07 in1.8 mm
07:26 PM 46.8°F8.2°C 40.3°F4.6°C 78% 2.0 mph NNW3.2 kmh NNW 6.9 mph11.1 kmh 29.96 in1014.6 mb 0.00 in0.0 mm 0.00 in0.0 mm 0.07 in1.8 mm
07:36 PM 46.6°F8.1°C 40.1°F4.5°C 78% Calm Calm -- 29.96 in1014.6 mb 0.00 in0.0 mm 0.00 in0.0 mm 0.07 in1.8 mm
07:46 PM 45.7°F7.6°C 39.2°F4.0°C 78% Calm Calm 0.9 mph1.4 kmh 29.96 in1014.6 mb 0.00 in0.0 mm 0.00 in0.0 mm 0.07 in1.8 mm
07:56 PM 44.1°F6.7°C 38.3°F3.5°C 80% Calm Calm 2.0 mph3.2 kmh 29.96 in1014.6 mb 0.00 in0.0 mm 0.00 in0.0 mm 0.07 in1.8 mm
08:06 PM 43.3°F6.3°C 38.5°F3.6°C 83% Calm Calm 2.0 mph3.2 kmh 29.95 in1014.2 mb 0.00 in0.0 mm 0.00 in0.0 mm 0.07 in1.8 mm
08:16 PM 42.8°F6.0°C 38.3°F3.5°C 84% Calm Calm -- 29.95 in1014.2 mb 0.00 in0.0 mm 0.00 in0.0 mm 0.07 in1.8 mm
08:26 PM 42.6°F5.9°C 38.5°F3.6°C 85% Calm Calm -- 29.96 in1014.6 mb 0.00 in0.0 mm 0.00 in0.0 mm 0.07 in1.8 mm
08:36 PM 42.6°F5.9°C 38.5°F3.6°C 85% Calm Calm -- 29.95 in1014.2 mb 0.00 in0.0 mm 0.00 in0.0 mm 0.07 in1.8 mm
08:46 PM 41.9°F5.5°C 37.9°F3.3°C 86% Calm Calm -- 29.95 in1014.2 mb 0.00 in0.0 mm 0.00 in0.0 mm 0.07 in1.8 mm
08:56 PM 42.1°F5.6°C 38.5°F3.6°C 87% Calm Calm -- 29.95 in1014.2 mb 0.00 in0.0 mm 0.00 in0.0 mm 0.07 in1.8 mm
09:06 PM 42.4°F5.8°C 39.2°F4.0°C 88% 2.0 mph NW3.2 kmh NW 6.0 mph9.7 kmh 29.95 in1014.2 mb 0.00 in0.0 mm 0.00 in0.0 mm 0.07 in1.8 mm
09:16 PM 43.2°F6.2°C 39.6°F4.2°C 87% 4.0 mph NW6.4 kmh NW 6.0 mph9.7 kmh 29.95 in1014.2 mb 0.00 in0.0 mm 0.00 in0.0 mm 0.07 in1.8 mm
09:26 PM 43.2°F6.2°C 39.2°F4.0°C 86% 2.9 mph NW4.7 kmh NW 4.9 mph7.9 kmh 29.95 in1014.2 mb 0.00 in0.0 mm 0.00 in0.0 mm 0.07 in1.8 mm
09:37 PM 42.3°F5.7°C 37.8°F3.2°C 84% Calm Calm 2.9 mph4.7 kmh 29.94 in1013.9 mb 0.00 in0.0 mm 0.00 in0.0 mm 0.07 in1.8 mm
09:47 PM 43.0°F6.1°C 39.7°F4.3°C 88% 2.0 mph NNW3.2 kmh NNW 8.9 mph14.3 kmh 29.94 in1013.9 mb 0.00 in0.0 mm 0.00 in0.0 mm 0.07 in1.8 mm
09:57 PM 44.4°F6.9°C 40.3°F4.6°C 85% 4.9 mph NNW7.9 kmh NNW 8.9 mph14.3 kmh 29.93 in1013.5 mb 0.00 in0.0 mm 0.00 in0.0 mm 0.07 in1.8 mm
10:07 PM 44.4°F6.9°C 39.6°F4.2°C 83% 4.9 mph N7.9 kmh N 10.1 mph16.3 kmh 29.93 in1013.5 mb 0.00 in0.0 mm 0.00 in0.0 mm 0.07 in1.8 mm
10:17 PM 42.6°F5.9°C 37.2°F2.9°C 81% 2.0 mph E3.2 kmh E 8.9 mph14.3 kmh 29.94 in1013.9 mb 0.00 in0.0 mm 0.00 in0.0 mm 0.07 in1.8 mm
10:27 PM 41.2°F5.1°C 36.7°F2.6°C 84% Calm Calm -- 29.93 in1013.5 mb 0.00 in0.0 mm 0.00 in0.0 mm 0.07 in1.8 mm
10:37 PM 40.3°F4.6°C 36.5°F2.5°C 86% Calm Calm -- 29.93 in1013.5 mb 0.00 in0.0 mm 0.00 in0.0 mm 0.07 in1.8 mm
10:47 PM 39.6°F4.2°C 36.0°F2.2°C 87% Calm Calm -- 29.93 in1013.5 mb 0.00 in0.0 mm 0.00 in0.0 mm 0.07 in1.8 mm
10:57 PM 39.4°F4.1°C 36.1°F2.3°C 88% Calm Calm -- 29.93 in1013.5 mb 0.00 in0.0 mm 0.00 in0.0 mm 0.07 in1.8 mm
11:07 PM 39.0°F3.9°C 36.1°F2.3°C 89% Calm Calm -- 29.93 in1013.5 mb 0.00 in0.0 mm 0.00 in0.0 mm 0.07 in1.8 mm
11:17 PM 39.4°F4.1°C 36.7°F2.6°C 90% Calm Calm -- 29.93 in1013.5 mb 0.00 in0.0 mm 0.00 in0.0 mm 0.07 in1.8 mm
11:27 PM 39.0°F3.9°C 36.1°F2.3°C 89% Calm Calm 0.9 mph1.4 kmh 29.93 in1013.5 mb 0.00 in0.0 mm 0.00 in0.0 mm 0.07 in1.8 mm
11:38 PM 38.7°F3.7°C 35.8°F2.1°C 89% Calm Calm -- 29.93 in1013.5 mb 0.00 in0.0 mm 0.00 in0.0 mm 0.07 in1.8 mm
11:48 PM 38.1°F3.4°C 35.2°F1.8°C 89% Calm Calm -- 29.93 in1013.5 mb 0.00 in0.0 mm 0.00 in0.0 mm 0.07 in1.8 mm
11:58 PM 37.9°F3.3°C 35.2°F1.8°C 90% Calm Calm -- 29.93 in1013.5 mb 0.00 in0.0 mm 0.00 in0.0 mm 0.07 in1.8 mm